La Cueva, New Mexico
Current Conditions -  °F | °C
As of 2:53 AM on Tuesday 21 Oct 2014 (Local Time) from KSAF Reporting Station
Broken Clouds Broken Clouds  
Wind Chill: 45°   Ceiling: 7500
Heat Index: 48°   Visibility: 10mi
Dew Point: 45°   Wind: 7mph
Humidity: 89%   Direction: 220°SW
Pressure: 30.21"   Gusts: NA
Location:  35.6111°N, 105.774°W
Report Text: KSAF 210853Z AUTO 22006KT 10SM FEW036 BKN075 09/07 A3021 RMK AO2 SLP153 T00890072 58006
Loading
Personal Weather Stations






























Interactive Weather Map
Tropical Storm Tracking
New forecast layout! Learn more

10-Day Weather Forecast

Advertisements
Track Severe Weather on mobile